sim
Sign-in with your pilot id or email,
or register
Callsign
Passwort

Schedule Details

Flight Number: DLH2734 (2)
Departure: Munich Airport (EDDM) at 19:40
Arrival: Dusseldorf International Airport (EDDL) at 20:50
Route: Lufthansa Passenger Schedule. Enter filed route here before submitting Pirep.

Weather Information
Getting current METAR information for EDDM 250850Z 28010KT 250V310 9999 -RA FEW018 SCT030 BKN045 10/08 Q1003 RERA NOSIG
Getting current METAR information for EDDL 250850Z 18013KT 140V200 9999 BKN048 12/06 Q0997 NOSIG

Schedule Frequency

Route Map